Inman, Kansas
Current Conditions -  °F | °C
As of 7:52 PM on Thursday 20 Nov 2014 (Local Time) from KHUT Reporting Station
Clear Clear  
Wind Chill: 30°   Ceiling: Unl
Heat Index: 37°   Visibility: 10mi
Dew Point: 23°   Wind: 9mph
Humidity: 57%   Direction: 90°E
Pressure: 30.14"   Gusts: NA
Location:  38.23°N, 97.77°W
Report Text: KHUT 210152Z 09008KT 10SM CLR 03/M05 A3014 RMK AO2 SLP212 T00281050
Loading
Personal Weather Stations






























Interactive Weather Map New forecast layout! Learn more

10-Day Weather Forecast

Advertisements
Track Severe Weather on mobile